Time;durP1;ratioP1;P1;durP2;ratioP2;P2;SDS_P1;SDS_P2;PMS_P1;PMS_P2;Temp;Humidity;BMP_temperature;BMP_pressure;BME280_temperature;BME280_humidity;BME280_pressure;Samples;Min_cycle;Max_cycle;Signal;HPM_P1;HPM_P2
2020/12/31 00:00:09;;;;;;;141.60;34.63;;;;;;;3.01;78.02;98034.05;2153214;83;21087;-79
2020/12/31 00:03:15;;;;;;;109.77;33.90;;;;;;;2.95;78.44;98039.91;2153844;83;21096;-79
2020/12/31 00:06:16;;;;;;;118.93;37.83;;;;;;;2.87;78.38;98039.69;2154552;82;21167;-79
2020/12/31 00:09:17;;;;;;;113.87;38.03;;;;;;;2.81;78.45;98042.09;2154081;83;21123;-79
2020/12/31 00:12:18;;;;;;;113.60;35.90;;;;;;;2.84;78.57;98041.30;2154494;82;21119;-80
2020/12/31 00:15:19;;;;;;;136.77;39.20;;;;;;;2.90;78.84;98044.47;2154725;79;21192;-79
2020/12/31 00:18:20;;;;;;;168.53;41.87;;;;;;;2.90;78.68;98043.18;2154303;83;21123;-80
2020/12/31 00:21:21;;;;;;;118.43;36.97;;;;;;;2.85;78.36;98042.63;2154458;82;21393;-79
2020/12/31 00:24:23;;;;;;;119.07;32.40;;;;;;;2.80;78.48;98042.04;2153782;83;21092;-79
2020/12/31 00:27:24;;;;;;;161.60;36.17;;;;;;;2.75;78.45;98034.17;2153352;83;21127;-79
2020/12/31 00:30:25;;;;;;;126.70;31.23;;;;;;;2.67;78.45;98034.36;2153048;83;21138;-78
2020/12/31 00:33:26;;;;;;;139.63;33.70;;;;;;;2.58;78.49;98034.47;2151791;83;21135;-77
2020/12/31 00:36:27;;;;;;;130.53;35.13;;;;;;;2.56;78.83;98040.45;2151989;83;21143;-79
2020/12/31 00:39:29;;;;;;;158.43;35.17;;;;;;;2.59;78.83;98037.50;2152038;83;21134;-77
2020/12/31 00:42:30;;;;;;;212.40;37.00;;;;;;;2.60;78.88;98040.54;2151865;83;21091;-77
2020/12/31 00:45:31;;;;;;;180.73;37.73;;;;;;;2.58;78.83;98038.34;2152061;83;21131;-79
2020/12/31 00:48:33;;;;;;;159.23;35.33;;;;;;;2.51;78.89;98034.28;2151863;83;21123;-78
2020/12/31 00:51:34;;;;;;;153.30;31.40;;;;;;;2.42;78.83;98044.31;2151962;83;21142;-78
2020/12/31 00:54:35;;;;;;;116.80;29.60;;;;;;;2.30;78.93;98047.80;2151925;83;21111;-78
2020/12/31 00:57:36;;;;;;;169.20;31.13;;;;;;;2.13;79.00;98045.09;2152574;82;21135;-79
2020/12/31 01:00:37;;;;;;;121.23;28.97;;;;;;;2.00;79.11;98052.84;2152604;82;21655;-78
2020/12/31 01:03:38;;;;;;;133.57;26.47;;;;;;;1.94;79.38;98054.34;2152666;82;21123;-78
2020/12/31 01:06:39;;;;;;;93.90;27.87;;;;;;;1.86;79.44;98057.53;2152537;83;21159;-78
2020/12/31 01:09:40;;;;;;;118.40;30.27;;;;;;;1.80;79.47;98057.33;2152362;82;21127;-79
2020/12/31 01:12:41;;;;;;;91.90;29.90;;;;;;;1.75;79.55;98050.28;2152355;83;21395;-77
2020/12/31 01:15:42;;;;;;;64.53;25.17;;;;;;;1.79;79.68;98063.30;2154714;82;21150;-78
2020/12/31 01:18:43;;;;;;;76.23;24.40;;;;;;;1.89;79.82;98064.07;2168696;82;21114;-78
2020/12/31 01:21:44;;;;;;;58.67;20.57;;;;;;;1.97;79.58;98073.74;2170639;81;21114;-78
2020/12/31 01:24:45;;;;;;;60.13;23.47;;;;;;;2.00;79.35;98072.55;2175251;82;21125;-77
2020/12/31 01:27:47;;;;;;;89.33;21.87;;;;;;;2.01;79.25;98080.73;2175999;82;21145;-77
2020/12/31 01:30:48;;;;;;;69.13;20.43;;;;;;;2.04;79.09;98076.56;2175902;82;21138;-79
2020/12/31 01:33:49;;;;;;;65.30;21.60;;;;;;;2.05;78.90;98072.30;2175346;82;21365;-78
2020/12/31 01:36:50;;;;;;;67.13;21.67;;;;;;;2.04;78.75;98077.86;2176061;82;21118;-78
2020/12/31 01:39:54;;;;;;;66.47;21.33;;;;;;;2.02;78.59;98076.93;2176540;82;21145;-79
2020/12/31 01:42:55;;;;;;;55.27;21.67;;;;;;;1.99;78.63;98076.83;2176625;82;21361;-78
2020/12/31 01:45:56;;;;;;;66.60;20.97;;;;;;;1.97;78.57;98075.03;2176389;82;21165;-78
2020/12/31 01:48:57;;;;;;;66.80;20.73;;;;;;;1.99;78.40;98077.23;2176144;82;21145;-78
2020/12/31 01:51:58;;;;;;;62.27;21.03;;;;;;;1.99;78.56;98074.26;2176291;82;21125;-78
2020/12/31 01:55:02;;;;;;;86.47;22.57;;;;;;;1.99;78.23;98079.41;2176348;82;21122;-78
2020/12/31 01:58:03;;;;;;;84.20;21.20;;;;;;;1.93;78.13;98079.61;2176667;82;21106;-78
2020/12/31 02:01:07;;;;;;;63.27;20.90;;;;;;;1.91;78.19;98075.70;2176433;82;21114;-78
2020/12/31 02:04:08;;;;;;;74.33;21.00;;;;;;;1.90;78.23;98076.11;2176617;82;21122;-78
2020/12/31 02:07:09;;;;;;;60.10;19.87;;;;;;;1.93;78.35;98076.62;2176823;82;21161;-78
2020/12/31 02:10:12;;;;;;;59.90;21.33;;;;;;;1.98;78.33;98083.22;2176498;82;21123;-78
2020/12/31 02:13:17;;;;;;;66.43;21.33;;;;;;;2.02;78.38;98085.06;2176569;82;21114;-78
2020/12/31 02:16:18;;;;;;;;;;;;;;;2.05;78.30;98090.31;2184089;81;21149;-78
2020/12/31 02:19:22;;;;;;;57.63;20.03;;;;;;;2.04;78.24;98089.44;2196881;81;20141;-79
2020/12/31 02:22:23;;;;;;;48.40;19.17;;;;;;;2.02;78.16;98092.38;2187765;81;21141;-79
2020/12/31 02:25:24;;;;;;;63.30;20.03;;;;;;;1.99;77.96;98093.97;2176445;82;21162;-78
2020/12/31 02:28:25;;;;;;;39.13;16.77;;;;;;;1.93;77.86;98106.64;2176564;82;21396;-78
2020/12/31 02:31:26;;;;;;;54.93;19.13;;;;;;;1.89;77.52;98097.53;2176565;82;21150;-79
2020/12/31 02:34:27;;;;;;;53.63;22.37;;;;;;;1.80;77.61;98098.50;2177026;82;21150;-79
2020/12/31 02:37:28;;;;;;;54.37;21.20;;;;;;;1.75;77.69;98102.61;2176509;82;21138;-79
2020/12/31 02:40:29;;;;;;;61.63;23.17;;;;;;;1.76;77.85;98106.94;2176858;82;21126;-79
2020/12/31 02:43:30;;;;;;;48.67;22.77;;;;;;;1.79;77.94;98113.48;2176837;82;21110;-79
2020/12/31 02:46:34;;;;;;;60.17;22.33;;;;;;;1.85;77.93;98117.96;2176790;82;21186;-78
2020/12/31 02:49:35;;;;;;;46.17;22.93;;;;;;;1.87;77.89;98121.05;2176203;82;21126;-78
2020/12/31 02:52:36;;;;;;;56.70;22.20;;;;;;;1.86;77.75;98125.73;2176436;82;21086;-79
2020/12/31 02:55:40;;;;;;;64.57;23.30;;;;;;;1.93;77.85;98128.52;2176229;82;21098;-78
2020/12/31 02:58:41;;;;;;;57.40;22.10;;;;;;;1.89;77.58;98121.10;2176766;82;21397;-78
2020/12/31 03:01:42;;;;;;;59.80;21.90;;;;;;;1.80;77.35;98125.94;2176661;82;21381;-79
2020/12/31 03:04:43;;;;;;;58.57;23.30;;;;;;;1.75;77.75;98118.47;2176772;82;21141;-78
2020/12/31 03:07:44;;;;;;;66.13;22.20;;;;;;;1.77;77.66;98120.68;2176860;82;21138;-79
2020/12/31 03:10:45;;;;;;;64.30;22.47;;;;;;;1.68;77.45;98123.78;2176853;82;21134;-80
2020/12/31 03:13:46;;;;;;;67.77;24.70;;;;;;;1.67;77.97;98118.16;2176608;82;21106;-78
2020/12/31 03:16:47;;;;;;;60.67;23.97;;;;;;;1.73;77.89;98120.08;2179693;81;21155;-78
2020/12/31 03:19:51;;;;;;;52.53;22.97;;;;;;;1.77;77.83;98127.11;2177531;81;21115;-78
2020/12/31 03:22:54;;;;;;;56.03;23.63;;;;;;;1.72;77.37;98128.20;2176396;81;21200;-79
2020/12/31 03:25:55;;;;;;;65.27;25.60;;;;;;;1.60;77.40;98130.34;2175875;82;21170;-78
2020/12/31 03:28:59;;;;;;;59.40;25.00;;;;;;;1.53;77.35;98137.38;2176042;81;21130;-77
2020/12/31 03:32:00;;;;;;;69.17;28.83;;;;;;;1.41;77.57;98136.95;2176482;82;21083;-78
2020/12/31 03:35:01;;;;;;;63.77;26.73;;;;;;;1.30;77.72;98139.13;2176411;82;21400;-80
2020/12/31 03:38:02;;;;;;;67.40;26.97;;;;;;;1.26;78.13;98147.14;2176774;81;21142;-80
2020/12/31 03:41:03;;;;;;;63.10;25.53;;;;;;;1.34;78.30;98149.11;2176336;82;21380;-78
2020/12/31 03:44:05;;;;;;;56.17;23.13;;;;;;;1.40;78.35;98148.05;2176415;81;21138;-77
2020/12/31 03:47:06;;;;;;;57.63;24.30;;;;;;;1.48;78.45;98150.49;2176249;82;21149;-78
2020/12/31 03:50:07;;;;;;;63.07;24.13;;;;;;;1.55;78.29;98160.18;2176652;81;21379;-78
2020/12/31 03:53:08;;;;;;;51.37;23.40;;;;;;;1.59;78.17;98166.77;2176747;82;21114;-79
2020/12/31 03:56:09;;;;;;;63.67;23.23;;;;;;;1.59;77.95;98171.05;2177117;81;21203;-78
2020/12/31 03:59:10;;;;;;;51.70;23.10;;;;;;;1.57;77.91;98162.39;2176884;81;21388;-79
2020/12/31 04:02:11;;;;;;;57.73;22.20;;;;;;;1.56;77.75;98158.95;2177274;81;21127;-79
2020/12/31 04:05:12;;;;;;;56.77;24.30;;;;;;;1.54;77.64;98160.59;2176994;82;21496;-78
2020/12/31 04:08:13;;;;;;;52.77;23.40;;;;;;;1.54;77.47;98164.86;2176799;82;21416;-79
2020/12/31 04:11:14;;;;;;;54.80;24.23;;;;;;;1.54;77.47;98173.86;2176936;81;21129;-79
2020/12/31 04:14:16;;;;;;;51.77;23.53;;;;;;;1.55;77.49;98174.33;2176681;81;21094;-79
2020/12/31 04:17:20;;;;;;;50.23;23.13;;;;;;;1.53;77.33;98170.41;2178341;81;21122;-78
2020/12/31 04:20:21;;;;;;;57.13;24.77;;;;;;;1.50;77.09;98164.28;2177532;82;21138;-79
2020/12/31 04:23:22;;;;;;;62.73;24.77;;;;;;;1.50;77.07;98159.14;2176916;82;21122;-80
2020/12/31 04:26:23;;;;;;;63.57;24.73;;;;;;;1.49;76.85;98162.53;2176932;82;21189;-78
2020/12/31 04:29:27;;;;;;;73.53;26.37;;;;;;;1.45;76.79;98164.11;2177527;82;21126;-79
2020/12/31 04:32:30;;;;;;;108.57;30.93;;;;;;;1.44;76.90;98165.34;2176812;82;21248;-78
2020/12/31 04:35:31;;;;;;;90.80;30.80;;;;;;;1.40;76.70;98163.48;2176813;82;21141;-79
2020/12/31 04:38:32;;;;;;;77.20;29.33;;;;;;;1.40;76.69;98159.62;2176028;82;21090;-78
2020/12/31 04:41:33;;;;;;;72.50;27.67;;;;;;;1.38;76.84;98154.42;2176198;82;21087;-78
2020/12/31 04:44:35;;;;;;;89.77;29.17;;;;;;;1.38;76.77;98157.41;2176010;82;21118;-78
2020/12/31 04:47:36;;;;;;;70.87;26.90;;;;;;;1.31;76.74;98164.02;2175163;82;21761;-78
2020/12/31 04:50:37;;;;;;;69.27;28.33;;;;;;;1.30;76.90;98169.98;2175391;82;21122;-79
2020/12/31 04:53:38;;;;;;;73.03;25.47;;;;;;;1.21;76.71;98169.23;2174706;82;21126;-79
2020/12/31 04:56:39;;;;;;;63.67;27.00;;;;;;;1.18;76.83;98178.52;2175193;82;21118;-78
2020/12/31 04:59:40;;;;;;;65.83;25.60;;;;;;;1.17;76.93;98181.50;2174684;82;21130;-78
2020/12/31 05:02:41;;;;;;;66.37;25.70;;;;;;;1.20;77.05;98194.87;2174400;82;21873;-79
2020/12/31 05:05:42;;;;;;;71.93;26.33;;;;;;;1.21;76.84;98191.08;2174840;82;21338;-78
2020/12/31 05:08:43;;;;;;;81.40;25.10;;;;;;;1.24;76.71;98192.48;2175190;82;21110;-78
2020/12/31 05:11:45;;;;;;;70.23;28.23;;;;;;;1.23;76.67;98197.16;2175623;82;21118;-79
2020/12/31 05:14:46;;;;;;;65.00;26.40;;;;;;;1.25;76.69;98187.81;2175101;82;21228;-78
2020/12/31 05:17:47;;;;;;;64.93;26.23;;;;;;;1.25;76.53;98189.09;2184438;81;21556;-79
2020/12/31 05:20:48;;;;;;;72.60;30.20;;;;;;;1.24;76.58;98195.47;2175370;81;21122;-78
2020/12/31 05:23:49;;;;;;;71.87;31.13;;;;;;;1.26;76.63;98204.11;2174034;82;21196;-79
2020/12/31 05:26:50;;;;;;;63.60;25.53;;;;;;;1.24;76.54;98209.20;2173348;82;21280;-79
2020/12/31 05:29:51;;;;;;;55.20;23.37;;;;;;;1.24;76.59;98214.34;2174300;82;21118;-80
2020/12/31 05:32:52;;;;;;;63.37;25.63;;;;;;;1.17;76.36;98209.78;2174482;82;21118;-79
2020/12/31 05:35:53;;;;;;;67.37;26.80;;;;;;;1.17;76.51;98202.06;2174524;82;21106;-80
2020/12/31 05:38:54;;;;;;;75.83;26.37;;;;;;;1.21;76.36;98201.37;2175125;82;21134;-79
2020/12/31 05:41:55;;;;;;;74.20;25.30;;;;;;;1.18;76.16;98203.82;2174862;82;21090;-78
2020/12/31 05:44:56;;;;;;;54.20;24.87;;;;;;;1.13;76.41;98206.62;2174242;82;21395;-79
2020/12/31 05:47:57;;;;;;;68.80;26.03;;;;;;;1.16;76.50;98214.45;2174242;82;21149;-80
2020/12/31 05:50:58;;;;;;;97.00;28.13;;;;;;;1.19;76.47;98207.27;2173641;82;21122;-78
2020/12/31 05:53:59;;;;;;;100.97;37.60;;;;;;;1.14;76.31;98203.64;2173952;82;21114;-78
2020/12/31 05:57:00;;;;;;;105.57;30.57;;;;;;;1.03;76.34;98194.64;2173558;82;21105;-78
2020/12/31 06:00:02;;;;;;;153.53;25.67;;;;;;;0.96;76.54;98192.25;2172942;82;21139;-77
2020/12/31 06:03:03;;;;;;;106.70;26.03;;;;;;;0.81;76.20;98194.19;2173012;82;21479;-78
2020/12/31 06:06:04;;;;;;;115.00;27.13;;;;;;;0.75;76.58;98199.08;2172686;82;21202;-76
2020/12/31 06:09:06;;;;;;;77.03;24.10;;;;;;;0.75;76.52;98205.50;2172837;82;21126;-75
2020/12/31 06:12:08;;;;;;;93.33;26.27;;;;;;;0.64;76.73;98211.50;2173031;82;21611;-75
2020/12/31 06:15:09;;;;;;;59.37;24.53;;;;;;;0.62;76.93;98202.45;2173159;82;21229;-76
2020/12/31 06:18:11;;;;;;;84.53;24.40;;;;;;;2.67;88.76;98201.86;2161285;81;21778;-76
2020/12/31 06:21:12;;;;;;;82.93;24.67;;;;;;;3.16;77.71;98196.53;2149329;83;21119;-75
2020/12/31 06:24:13;;;;;;;117.43;26.50;;;;;;;2.53;74.86;98187.20;2148999;82;21072;-76
2020/12/31 06:27:14;;;;;;;122.50;30.33;;;;;;;2.07;74.93;98189.06;2149492;82;21166;-76
2020/12/31 06:30:16;;;;;;;81.43;27.70;;;;;;;1.84;75.20;98198.14;2149027;82;21135;-76
2020/12/31 06:33:17;;;;;;;95.00;25.97;;;;;;;1.65;75.25;98202.55;2149013;82;21135;-75
2020/12/31 06:36:18;;;;;;;62.27;23.97;;;;;;;1.49;75.52;98207.54;2148782;82;21119;-76
2020/12/31 06:39:19;;;;;;;76.63;23.40;;;;;;;1.42;75.58;98209.42;2149477;82;21245;-76
2020/12/31 06:42:20;;;;;;;68.80;23.70;;;;;;;1.35;75.69;98212.58;2148805;82;21135;-76
2020/12/31 06:45:22;;;;;;;55.73;21.97;;;;;;;1.33;75.75;98209.08;2148423;82;21115;-76
2020/12/31 06:48:23;;;;;;;63.03;22.97;;;;;;;1.31;75.83;98210.71;2148515;82;21434;-76
2020/12/31 06:51:25;;;;;;;60.63;21.93;;;;;;;1.26;75.87;98211.41;2148708;82;21623;-76
2020/12/31 06:54:26;;;;;;;61.70;22.73;;;;;;;1.23;75.83;98206.56;2149340;82;21095;-75
2020/12/31 06:57:27;;;;;;;63.00;23.83;;;;;;;1.23;76.03;98212.99;2149045;82;21744;-76
2020/12/31 07:00:28;;;;;;;103.93;39.03;;;;;;;1.24;75.97;98214.74;2148703;82;21433;-76
2020/12/31 07:03:29;;;;;;;88.43;37.90;;;;;;;1.23;76.04;98218.13;2148461;82;21096;-76
2020/12/31 07:06:31;;;;;;;72.43;25.40;;;;;;;1.21;75.96;98218.08;2147657;82;21278;-76
2020/12/31 07:09:33;;;;;;;64.87;21.80;;;;;;;1.23;75.93;98219.01;2147868;82;21241;-76
2020/12/31 07:12:34;;;;;;;60.37;24.27;;;;;;;1.25;75.99;98215.21;2149143;82;21887;-75
2020/12/31 07:15:35;;;;;;;58.17;24.87;;;;;;;1.26;76.14;98210.13;2148833;82;21224;-75
2020/12/31 07:18:36;;;;;;;62.97;23.33;;;;;;;1.34;76.16;98219.83;2162907;81;21103;-76
2020/12/31 07:21:37;;;;;;;67.07;23.30;;;;;;;1.37;75.87;98219.94;2171921;82;21245;-76
2020/12/31 07:24:39;;;;;;;62.07;23.67;;;;;;;1.38;75.82;98222.98;2172137;82;21114;-76
2020/12/31 07:27:40;;;;;;;50.43;22.83;;;;;;;1.41;75.61;98221.81;2172397;82;21150;-76
2020/12/31 07:30:41;;;;;;;67.63;23.20;;;;;;;1.44;75.44;98225.37;2172394;82;21249;-76
2020/12/31 07:33:42;;;;;;;70.57;22.50;;;;;;;1.45;75.47;98226.25;2172686;82;21095;-76
2020/12/31 07:36:43;;;;;;;53.07;22.97;;;;;;;1.52;75.50;98225.25;2172577;82;21598;-76
2020/12/31 07:39:44;;;;;;;66.03;24.13;;;;;;;1.53;75.55;98223.14;2173050;82;21106;-76
2020/12/31 07:42:45;;;;;;;81.37;23.53;;;;;;;1.61;75.58;98224.70;2172744;82;21126;-76
2020/12/31 07:45:46;;;;;;;70.97;23.13;;;;;;;1.63;75.46;98228.22;2172797;82;21476;-76
2020/12/31 07:48:47;;;;;;;99.03;29.60;;;;;;;1.66;75.51;98232.59;2172924;82;21690;-76
2020/12/31 07:51:48;;;;;;;63.47;26.40;;;;;;;1.68;75.45;98234.41;2173645;82;21125;-75
2020/12/31 07:54:49;;;;;;;65.60;24.07;;;;;;;1.72;75.44;98225.98;2173213;82;21130;-75
2020/12/31 07:57:50;;;;;;;85.17;23.60;;;;;;;1.76;75.32;98224.02;2173416;82;21138;-76
2020/12/31 08:00:52;;;;;;;73.60;24.20;;;;;;;1.83;75.11;98235.41;2173624;82;21126;-77
2020/12/31 08:03:52;;;;;;;68.27;24.60;;;;;;;1.91;74.84;98236.14;2171531;82;21110;-76
2020/12/31 08:06:53;;;;;;;83.13;27.27;;;;;;;1.97;74.93;98237.19;2172978;82;21119;-76
2020/12/31 08:09:55;;;;;;;82.03;25.47;;;;;;;2.03;74.79;98245.12;2172372;82;21142;-75
2020/12/31 08:12:56;;;;;;;64.73;28.07;;;;;;;2.08;74.38;98234.17;2172178;82;21793;-76
2020/12/31 08:15:57;;;;;;;75.47;30.33;;;;;;;2.09;74.20;98234.63;2172472;82;21433;-76
2020/12/31 08:18:58;;;;;;;99.23;32.77;;;;;;;2.09;74.07;98241.48;2174113;81;21144;-76
2020/12/31 08:21:59;;;;;;;123.30;27.90;;;;;;;2.18;74.21;98245.66;2172154;82;21107;-76
2020/12/31 08:25:00;;;;;;;88.33;25.67;;;;;;;2.19;73.93;98237.12;2171093;82;21110;-76
2020/12/31 08:28:01;;;;;;;77.80;29.93;;;;;;;2.18;73.88;98228.93;2171080;82;21158;-76
2020/12/31 08:31:03;;;;;;;119.00;31.57;;;;;;;2.09;73.70;98232.06;2172503;82;21263;-76
2020/12/31 08:34:04;;;;;;;102.80;32.67;;;;;;;2.05;73.71;98225.05;2171935;82;21107;-76
2020/12/31 08:37:05;;;;;;;119.47;33.20;;;;;;;2.02;73.64;98226.64;2172312;82;21079;-76
2020/12/31 08:40:06;;;;;;;112.93;30.20;;;;;;;1.95;73.66;98228.13;2172909;82;21110;-76
2020/12/31 08:43:07;;;;;;;108.10;27.77;;;;;;;1.93;73.49;98223.74;2172705;82;21114;-76
2020/12/31 08:46:09;;;;;;;84.20;26.40;;;;;;;1.87;73.57;98233.41;2172892;82;21162;-75
2020/12/31 08:49:10;;;;;;;85.23;27.57;;;;;;;1.78;73.61;98231.80;2172892;82;21130;-76
2020/12/31 08:52:11;;;;;;;90.47;27.83;;;;;;;1.84;74.00;98241.89;2172359;82;21124;-76
2020/12/31 08:55:12;;;;;;;55.23;25.20;;;;;;;1.91;73.81;98241.30;2172712;82;21216;-76
2020/12/31 08:58:13;;;;;;;60.67;27.37;;;;;;;1.93;73.88;98240.06;2171791;82;21511;-76
2020/12/31 09:01:14;;;;;;;84.67;26.80;;;;;;;1.97;73.99;98237.19;2172551;82;21246;-75
2020/12/31 09:04:16;;;;;;;68.37;27.53;;;;;;;2.00;74.01;98248.47;2172806;82;21534;-76
2020/12/31 09:07:17;;;;;;;94.83;28.13;;;;;;;2.03;73.97;98248.98;2172841;82;21280;-76
2020/12/31 09:10:19;;;;;;;76.47;30.07;;;;;;;2.06;73.91;98246.52;2172631;82;21432;-76
2020/12/31 09:13:20;;;;;;;81.07;27.43;;;;;;;2.09;73.75;98245.34;2171048;82;21130;-75
2020/12/31 09:16:21;;;;;;;70.27;27.27;;;;;;;2.23;74.04;98255.30;2172316;82;21137;-75
2020/12/31 09:19:22;;;;;;;66.97;28.50;;;;;;;2.30;73.73;98265.41;2179845;81;21769;-75
2020/12/31 09:22:24;;;;;;;64.57;32.97;;;;;;;2.28;73.78;98259.33;2184934;81;21240;-75
2020/12/31 09:25:25;;;;;;;67.07;31.33;;;;;;;2.32;73.83;98268.03;2179635;81;21292;-75
2020/12/31 09:28:27;;;;;;;57.70;28.67;;;;;;;2.42;74.17;98276.55;2172382;82;21842;-75
2020/12/31 09:31:28;;;;;;;56.07;29.67;;;;;;;2.47;73.97;98270.73;2172870;82;21114;-75
2020/12/31 09:34:29;;;;;;;66.10;31.93;;;;;;;2.40;73.80;98280.77;2173010;82;21241;-76
2020/12/31 09:37:30;;;;;;;60.90;29.00;;;;;;;3.39;84.41;98276.32;2172535;82;21296;-76
2020/12/31 09:40:31;;;;;;;42.90;25.13;;;;;;;8.40;83.40;98261.23;2172347;82;21244;-75
2020/12/31 09:43:33;;;;;;;46.13;25.43;;;;;;;10.80;70.02;98255.48;2172391;82;21577;-75
2020/12/31 09:46:34;;;;;;;49.67;25.93;;;;;;;9.01;63.87;98260.98;2172764;82;21161;-75
2020/12/31 09:49:35;;;;;;;41.07;25.77;;;;;;;7.47;63.32;98252.17;2173271;82;21156;-75
2020/12/31 09:52:36;;;;;;;36.43;24.30;;;;;;;6.41;64.08;98260.73;2173295;82;21590;-76
2020/12/31 09:55:37;;;;;;;46.83;26.37;;;;;;;5.62;64.99;98255.61;2172918;82;21551;-75
2020/12/31 09:58:38;;;;;;;48.20;26.07;;;;;;;4.82;66.63;98259.73;2172587;82;21095;-75
2020/12/31 10:01:39;;;;;;;43.03;25.73;;;;;;;4.52;67.46;98258.53;2172617;82;21122;-75
2020/12/31 10:04:40;;;;;;;44.27;25.53;;;;;;;4.52;67.46;98258.53;2172991;82;21118;-74
2020/12/31 10:07:42;;;;;;;49.87;26.87;;;;;;;4.27;68.13;98255.69;2171843;82;21145;-75
2020/12/31 10:10:43;;;;;;;49.27;25.70;;;;;;;4.08;68.27;98257.30;2172543;82;21248;-75
2020/12/31 10:13:44;;;;;;;43.57;25.37;;;;;;;3.85;68.42;98266.98;2172453;82;21241;-75
2020/12/31 10:16:45;;;;;;;46.17;27.80;;;;;;;3.62;69.10;98262.86;2172147;82;21122;-75
2020/12/31 10:19:47;;;;;;;54.97;27.73;;;;;;;3.54;69.83;98263.05;2178664;81;21289;-75
2020/12/31 10:22:48;;;;;;;52.63;29.67;;;;;;;3.49;69.89;98259.03;2173978;81;21134;-75
2020/12/31 10:25:49;;;;;;;45.40;28.40;;;;;;;3.39;70.06;98260.84;2171595;82;21752;-75
2020/12/31 10:28:50;;;;;;;48.40;29.67;;;;;;;3.26;70.30;98258.30;2172751;82;21404;-75
2020/12/31 10:31:51;;;;;;;56.17;31.40;;;;;;;3.14;70.63;98254.05;2172356;82;21122;-75
2020/12/31 10:34:52;;;;;;;63.60;36.00;;;;;;;3.07;70.71;98253.39;2172420;82;21119;-74
2020/12/31 10:37:53;;;;;;;49.03;28.67;;;;;;;3.09;71.14;98242.72;2172820;82;21118;-75
2020/12/31 10:40:54;;;;;;;47.07;28.80;;;;;;;3.12;71.06;98244.10;2172848;82;21118;-74
2020/12/31 10:43:56;;;;;;;48.77;29.33;;;;;;;3.22;71.22;98238.81;2173145;82;21364;-75
2020/12/31 10:46:57;;;;;;;45.23;27.40;;;;;;;3.33;71.30;98232.28;2173154;82;21166;-75
2020/12/31 10:49:58;;;;;;;50.10;28.17;;;;;;;3.43;70.84;98231.73;2173120;82;21125;-75
2020/12/31 10:52:59;;;;;;;44.50;25.87;;;;;;;3.53;71.17;98220.00;2172523;82;21905;-75
2020/12/31 10:56:00;;;;;;;46.27;27.87;;;;;;;3.57;71.07;98214.98;2172483;82;21138;-75
2020/12/31 10:59:01;;;;;;;48.67;28.07;;;;;;;3.62;71.22;98212.11;2172874;82;21106;-75
2020/12/31 11:02:02;;;;;;;47.70;27.90;;;;;;;3.69;70.87;98205.42;2171595;82;21649;-74
2020/12/31 11:05:05;;;;;;;49.67;31.10;;;;;;;3.70;70.82;98207.17;2171793;82;21127;-74
2020/12/31 11:08:06;;;;;;;58.70;33.13;;;;;;;3.63;70.93;98209.12;2170771;82;21350;-75
2020/12/31 11:11:07;;;;;;;57.50;31.83;;;;;;;3.70;71.50;98201.59;2172038;82;21125;-74
2020/12/31 11:14:08;;;;;;;53.10;30.57;;;;;;;3.73;71.56;98205.97;2172951;82;21408;-75
2020/12/31 11:17:09;;;;;;;54.20;32.60;;;;;;;3.65;71.10;98199.71;2173182;82;21178;-75
2020/12/31 11:20:11;;;;;;;47.47;28.57;;;;;;;3.59;70.84;98194.37;2173080;80;21150;-74
2020/12/31 11:23:12;;;;;;;55.77;31.93;;;;;;;3.42;70.77;98189.98;2172648;82;21122;-74
2020/12/31 11:26:13;;;;;;;54.30;31.50;;;;;;;3.36;71.45;98187.23;2172441;82;21273;-75
2020/12/31 11:29:14;;;;;;;57.60;32.00;;;;;;;3.36;71.53;98189.81;2172817;82;21122;-75
2020/12/31 11:32:15;;;;;;;58.50;33.80;;;;;;;3.30;71.53;98190.91;2172750;82;21135;-75
2020/12/31 11:35:16;;;;;;;57.47;32.23;;;;;;;3.25;71.54;98182.16;2172720;82;21126;-75
2020/12/31 11:38:17;;;;;;;50.50;30.73;;;;;;;3.30;71.85;98180.18;2172560;82;21249;-74
2020/12/31 11:41:19;;;;;;;53.47;32.03;;;;;;;3.33;71.95;98180.27;2173021;82;21118;-75
2020/12/31 11:44:20;;;;;;;52.83;30.43;;;;;;;3.31;71.91;98180.64;2172721;82;21103;-74
2020/12/31 11:47:21;;;;;;;56.60;31.73;;;;;;;3.36;72.04;98175.20;2173138;82;21162;-75
2020/12/31 11:50:22;;;;;;;56.30;31.57;;;;;;;3.43;72.04;98173.27;2173713;82;21149;-75
2020/12/31 11:53:23;;;;;;;52.30;31.53;;;;;;;3.52;72.18;98168.81;2173843;82;21083;-75
2020/12/31 11:56:24;;;;;;;60.27;31.10;;;;;;;3.55;72.11;98168.02;2174159;82;21130;-75
2020/12/31 11:59:26;;;;;;;75.50;29.93;;;;;;;3.62;71.81;98158.33;2173621;82;21122;-74
2020/12/31 12:02:27;;;;;;;54.03;29.70;;;;;;;3.64;71.51;98151.09;2172851;82;21260;-75
2020/12/31 12:05:28;;;;;;;80.30;34.70;;;;;;;3.56;71.07;98151.30;2173270;82;21134;-75
2020/12/31 12:08:29;;;;;;;69.33;33.00;;;;;;;3.38;71.41;98142.59;2173241;82;21391;-75
2020/12/31 12:11:30;;;;;;;60.23;29.93;;;;;;;3.30;71.70;98147.94;2173241;82;21121;-75
2020/12/31 12:14:32;;;;;;;70.83;34.33;;;;;;;3.35;72.15;98146.78;2172811;82;21134;-74
2020/12/31 12:17:33;;;;;;;53.30;30.57;;;;;;;3.24;72.21;98140.02;2173668;82;21138;-74
2020/12/31 12:20:34;;;;;;;77.50;33.53;;;;;;;3.14;72.24;98141.45;2183663;81;21157;-75
2020/12/31 12:23:35;;;;;;;122.33;36.27;;;;;;;3.14;72.45;98137.59;2175701;81;21407;-75
2020/12/31 12:26:36;;;;;;;69.27;30.53;;;;;;;3.08;72.39;98148.14;2174359;82;21200;-75
2020/12/31 12:29:37;;;;;;;85.57;29.97;;;;;;;3.82;76.30;98139.98;2174693;82;21110;-76
2020/12/31 12:32:38;;;;;;;68.53;29.83;;;;;;;4.30;75.31;98141.22;2174050;82;21141;-75
2020/12/31 12:35:39;;;;;;;42.00;25.13;;;;;;;7.33;75.16;98130.37;2173608;82;21543;-75
2020/12/31 12:38:40;;;;;;;54.30;30.03;;;;;;;10.29;67.94;98119.67;2174797;82;21113;-76
2020/12/31 12:41:41;;;;;;;50.17;27.77;;;;;;;12.22;61.45;98115.41;2174944;82;21151;-75
2020/12/31 12:44:43;;;;;;;79.23;30.13;;;;;;;13.31;55.48;98117.59;2174943;82;21203;-75
2020/12/31 12:47:44;;;;;;;55.10;24.00;;;;;;;14.10;54.71;98118.41;2174846;82;21216;-75
2020/12/31 12:50:45;;;;;;;48.07;25.97;;;;;;;14.44;54.41;98112.25;2174765;82;21094;-75
2020/12/31 12:53:46;;;;;;;38.10;24.47;;;;;;;14.77;52.28;98113.52;2175229;82;21143;-76
2020/12/31 12:56:47;;;;;;;38.13;22.90;;;;;;;15.27;49.14;98117.02;2174754;82;21115;-75
2020/12/31 12:59:48;;;;;;;47.73;25.62;;;;;;;15.23;49.19;98120.15;2174695;82;21130;-76
2020/12/31 13:02:49;;;;;;;70.15;25.15;;;;;;;14.71;48.71;98120.59;2173782;82;21459;-76
2020/12/31 13:05:51;;;;;;;61.95;27.58;;;;;;;15.05;48.24;98123.11;2173547;82;21280;-76
2020/12/31 13:08:52;;;;;;;62.88;32.13;;;;;;;15.36;46.94;98123.87;2173578;82;21232;-75
2020/12/31 13:11:53;;;;;;;98.42;64.77;;;;;;;15.71;45.82;98124.11;2174019;82;21114;-75
2020/12/31 13:14:54;;;;;;;67.25;34.58;;;;;;;15.62;44.68;98121.66;2173366;82;21087;-75
2020/12/31 13:17:55;;;;;;;78.92;30.65;;;;;;;15.44;45.71;98123.27;2174085;82;21431;-75
2020/12/31 13:20:56;;;;;;;51.48;30.57;;;;;;;15.62;44.20;98121.66;2165095;81;21160;-75
2020/12/31 13:23:57;;;;;;;52.80;28.87;;;;;;;15.69;43.74;98128.54;2161599;82;21238;-76
2020/12/31 13:26:58;;;;;;;48.55;31.77;;;;;;;15.60;43.72;98123.02;2158984;82;21206;-76
2020/12/31 13:29:59;;;;;;;42.38;26.68;;;;;;;15.69;42.98;98121.96;2150966;83;21416;-76
2020/12/31 13:33:00;;;;;;;38.60;25.77;;;;;;;15.57;42.83;98128.72;2151492;82;21123;-75
2020/12/31 13:36:01;;;;;;;33.60;23.98;;;;;;;15.81;43.08;98123.03;2151748;82;21123;-75
2020/12/31 13:39:02;;;;;;;36.03;24.98;;;;;;;16.03;43.03;98126.53;2151834;82;21138;-76
2020/12/31 13:42:03;;;;;;;41.08;23.75;;;;;;;15.95;42.02;98120.11;2151953;82;21393;-75
2020/12/31 13:45:04;;;;;;;121.65;27.48;;;;;;;15.98;43.08;98122.67;2151910;83;21123;-77
2020/12/31 13:48:06;;;;;;;58.50;28.07;;;;;;;15.00;39.92;98126.27;2151453;83;21428;-76
2020/12/31 13:51:07;;;;;;;34.05;22.48;;;;;;;12.77;43.21;98135.95;2151733;82;21150;-76
2020/12/31 13:54:08;;;;;;;59.48;26.97;;;;;;;10.95;46.82;98137.12;2151571;83;21124;-76
2020/12/31 13:57:09;;;;;;;93.10;27.80;;;;;;;11.59;49.00;98130.47;2152114;82;21127;-76
2020/12/31 14:00:10;;;;;;;61.03;23.57;;;;;;;10.62;47.30;98135.83;2151881;82;21123;-76